Time;durP1;ratioP1;P1;durP2;ratioP2;P2;SDS_P1;SDS_P2;PMS_P1;PMS_P2;Temp;Humidity;BMP_temperature;BMP_pressure;BME280_temperature;BME280_humidity;BME280_pressure;Samples;Min_cycle;Max_cycle;Signal;HPM_P1;HPM_P2
2022/07/13 00:01:11;;;;;;;0.20;0.20;;;21.40;99.90;;;;;;5082561;28;20040;-68
2022/07/13 00:03:37;;;;;;;0.10;0.10;;;21.40;99.90;;;;;;5092595;28;20040;-69
2022/07/13 00:06:02;;;;;;;0.90;0.85;;;21.50;99.90;;;;;;5093579;28;20483;-69
2022/07/13 00:08:28;;;;;;;0.50;0.47;;;21.40;99.90;;;;;;5079905;28;20415;-68
2022/07/13 00:10:54;;;;;;;0.32;0.32;;;21.40;99.90;;;;;;5093024;28;20051;-68
2022/07/13 00:13:19;;;;;;;0.28;0.28;;;21.40;99.90;;;;;;5056952;28;20044;-69
2022/07/13 00:15:45;;;;;;;0.25;0.25;;;21.40;99.90;;;;;;5088111;28;20051;-69
2022/07/13 00:18:10;;;;;;;0.30;0.30;;;21.40;99.90;;;;;;5079141;28;20043;-68
2022/07/13 00:20:36;;;;;;;0.65;0.52;;;21.40;99.90;;;;;;5092806;28;20047;-68
2022/07/13 00:23:02;;;;;;;0.35;0.30;;;21.40;99.90;;;;;;5071708;28;20036;-68
2022/07/13 00:25:27;;;;;;;0.15;0.15;;;21.40;99.90;;;;;;5093317;28;20051;-69
2022/07/13 00:27:53;;;;;;;0.32;0.32;;;21.40;99.90;;;;;;5093723;28;20040;-68
2022/07/13 00:30:18;;;;;;;1.45;0.63;;;21.40;99.90;;;;;;5092441;28;20048;-68
2022/07/13 00:32:44;;;;;;;0.90;0.28;;;21.40;99.90;;;;;;5091275;28;20527;-69
2022/07/13 00:35:10;;;;;;;0.77;0.77;;;21.40;99.90;;;;;;5074702;28;20056;-69
2022/07/13 00:37:35;;;;;;;0.25;0.25;;;21.40;99.90;;;;;;5089791;28;20051;-68
2022/07/13 00:40:01;;;;;;;0.13;0.13;;;21.40;99.90;;;;;;5070074;28;20043;-68
2022/07/13 00:42:26;;;;;;;0.30;0.28;;;21.40;99.90;;;;;;5069858;28;20044;-68
2022/07/13 00:44:52;;;;;;;0.38;0.38;;;21.40;99.90;;;;;;5072327;28;20052;-68
2022/07/13 00:47:17;;;;;;;0.25;0.25;;;21.40;99.90;;;;;;5072596;28;20451;-68
2022/07/13 00:49:43;;;;;;;0.10;0.10;;;21.40;99.90;;;;;;5081239;28;20494;-68
2022/07/13 00:52:10;;;;;;;0.17;0.17;;;21.40;99.90;;;;;;5091545;28;20739;-68
2022/07/13 00:54:37;;;;;;;0.20;0.20;;;21.40;99.90;;;;;;5092906;28;20052;-68
2022/07/13 00:57:05;;;;;;;1.75;0.68;;;21.40;99.90;;;;;;5086510;28;20055;-69
2022/07/13 00:59:31;;;;;;;1.02;0.98;;;21.40;99.90;;;;;;5089717;28;20102;-68
2022/07/13 01:01:58;;;;;;;0.00;0.00;;;21.40;99.90;;;;;;5075256;28;20440;-68
2022/07/13 01:04:23;;;;;;;0.55;0.52;;;21.40;99.90;;;;;;5041999;28;20063;-68
2022/07/13 01:06:51;;;;;;;0.15;0.15;;;21.40;99.90;;;;;;5090464;28;20456;-68
2022/07/13 01:09:17;;;;;;;3.17;0.77;;;21.40;99.90;;;;;;5060391;28;20072;-69
2022/07/13 01:11:43;;;;;;;0.00;0.00;;;21.30;99.90;;;;;;5069177;28;20484;-68
2022/07/13 01:14:09;;;;;;;0.90;0.63;;;21.30;99.90;;;;;;5036288;28;20052;-68
2022/07/13 01:16:35;;;;;;;0.45;0.45;;;21.30;99.90;;;;;;5059364;28;20056;-68
2022/07/13 01:19:04;;;;;;;0.32;0.32;;;21.30;99.90;;;;;;5052172;28;20128;-69
2022/07/13 01:21:29;;;;;;;0.75;0.68;;;21.30;99.90;;;;;;5084083;28;20040;-69
2022/07/13 01:23:55;;;;;;;0.32;0.32;;;21.30;99.90;;;;;;5092409;28;20101;-69
2022/07/13 01:26:20;;;;;;;0.28;0.28;;;21.30;99.90;;;;;;5089253;28;20393;-68
2022/07/13 01:28:46;;;;;;;0.35;0.35;;;21.20;99.90;;;;;;5068164;28;20093;-68
2022/07/13 01:31:12;;;;;;;1.52;0.50;;;21.20;99.90;;;;;;5071902;28;20043;-68
2022/07/13 01:33:37;;;;;;;0.10;0.10;;;21.30;99.90;;;;;;5071038;28;20036;-68
2022/07/13 01:36:03;;;;;;;0.50;0.25;;;21.20;99.90;;;;;;5085625;28;20547;-68
2022/07/13 01:38:29;;;;;;;0.13;0.13;;;21.20;99.90;;;;;;5083393;28;20489;-68
2022/07/13 01:40:54;;;;;;;0.15;0.15;;;21.20;99.90;;;;;;5048926;28;20173;-68
2022/07/13 01:43:26;;;;;;;0.40;0.40;;;21.20;99.90;;;;;;5071681;28;20101;-69
2022/07/13 01:45:52;;;;;;;0.22;0.17;;;21.20;99.90;;;;;;5071075;28;20545;-68
2022/07/13 01:48:17;;;;;;;0.00;0.00;;;21.20;99.90;;;;;;5090050;28;20083;-68
2022/07/13 01:50:43;;;;;;;0.20;0.20;;;21.20;99.90;;;;;;5070500;28;20048;-68
2022/07/13 01:53:08;;;;;;;0.00;0.00;;;21.20;99.90;;;;;;5048597;28;20045;-69
2022/07/13 01:55:34;;;;;;;0.98;0.05;;;21.20;99.90;;;;;;5052930;28;20515;-68
2022/07/13 01:58:00;;;;;;;0.20;0.20;;;21.20;99.90;;;;;;5090218;28;20449;-68
2022/07/13 02:00:26;;;;;;;0.22;0.22;;;21.20;99.90;;;;;;5091452;28;20046;-69
2022/07/13 02:02:52;;;;;;;0.22;0.22;;;21.20;99.90;;;;;;5077644;28;20123;-69
2022/07/13 02:05:18;;;;;;;2.55;0.65;;;21.10;99.90;;;;;;5049534;28;20191;-68
2022/07/13 02:07:43;;;;;;;0.00;0.00;;;21.10;99.90;;;;;;5051327;28;20045;-68
2022/07/13 02:10:11;;;;;;;0.57;0.32;;;21.20;99.90;;;;;;5049670;28;20189;-69
2022/07/13 02:12:37;;;;;;;0.40;0.40;;;21.20;99.90;;;;;;5053905;28;20044;-68
2022/07/13 02:15:03;;;;;;;0.10;0.10;;;21.10;99.90;;;;;;5090950;28;20058;-68
2022/07/13 02:17:28;;;;;;;1.55;0.43;;;21.10;99.90;;;;;;5071233;28;20556;-69
2022/07/13 02:19:54;;;;;;;0.75;0.50;;;21.00;99.90;;;;;;5059879;28;20066;-69
2022/07/13 02:22:19;;;;;;;0.35;0.35;;;21.10;99.90;;;;;;5090473;28;20049;-68
2022/07/13 02:24:45;;;;;;;1.17;0.40;;;21.10;99.90;;;;;;5090594;28;20051;-69
2022/07/13 02:27:11;;;;;;;0.10;0.10;;;21.10;99.90;;;;;;5070588;28;20048;-69
2022/07/13 02:29:36;;;;;;;0.30;0.20;;;21.10;99.90;;;;;;5071693;28;20515;-68
2022/07/13 02:32:02;;;;;;;0.00;0.00;;;21.10;99.90;;;;;;5072564;28;20051;-69
2022/07/13 02:34:28;;;;;;;0.22;0.22;;;21.10;99.90;;;;;;5049404;28;20071;-69
2022/07/13 02:36:55;;;;;;;0.30;0.30;;;21.10;99.90;;;;;;5070159;28;20443;-68
2022/07/13 02:39:21;;;;;;;0.10;0.10;;;21.10;99.90;;;;;;5067560;28;20115;-69
2022/07/13 02:41:47;;;;;;;0.30;0.15;;;21.10;99.90;;;;;;5083920;28;20044;-68
2022/07/13 02:44:12;;;;;;;0.20;0.20;;;21.10;99.90;;;;;;5051815;28;20131;-68
2022/07/13 02:46:38;;;;;;;0.10;0.10;;;21.10;99.90;;;;;;5070622;28;20060;-68
2022/07/13 02:49:04;;;;;;;0.40;0.40;;;21.10;99.90;;;;;;5064715;28;20403;-68
2022/07/13 02:51:29;;;;;;;0.73;0.63;;;21.10;99.90;;;;;;5089863;28;20380;-68
2022/07/13 02:53:55;;;;;;;0.00;0.00;;;21.10;99.90;;;;;;5088259;28;20036;-68
2022/07/13 02:56:20;;;;;;;0.00;0.00;;;21.10;99.90;;;;;;5071821;28;20085;-68
2022/07/13 02:58:46;;;;;;;0.30;0.30;;;21.10;99.90;;;;;;5090152;28;20044;-68
2022/07/13 03:01:11;;;;;;;0.20;0.20;;;21.10;99.90;;;;;;5088359;28;20116;-68
2022/07/13 03:03:37;;;;;;;0.65;0.30;;;21.10;99.90;;;;;;5050968;28;20206;-68
2022/07/13 03:06:03;;;;;;;0.00;0.00;;;21.10;99.90;;;;;;5069286;28;20043;-69
2022/07/13 03:08:28;;;;;;;0.00;0.00;;;21.10;99.90;;;;;;5069269;28;20040;-68
2022/07/13 03:10:54;;;;;;;0.10;0.10;;;21.00;99.90;;;;;;5080170;28;20050;-68
2022/07/13 03:13:20;;;;;;;0.00;0.00;;;21.00;99.90;;;;;;5087083;28;20039;-69
2022/07/13 03:15:45;;;;;;;0.00;0.00;;;21.00;99.90;;;;;;5085006;28;20399;-68
2022/07/13 03:18:11;;;;;;;0.05;0.05;;;21.00;99.90;;;;;;5068272;28;20369;-68
2022/07/13 03:20:36;;;;;;;0.15;0.15;;;21.00;99.90;;;;;;5069151;28;20052;-68
2022/07/13 03:23:02;;;;;;;0.55;0.38;;;21.00;99.90;;;;;;5070120;28;20400;-69
2022/07/13 03:25:27;;;;;;;1.00;0.60;;;21.00;99.90;;;;;;5062130;28;20044;-68
2022/07/13 03:27:53;;;;;;;0.82;0.28;;;21.00;99.90;;;;;;5085309;28;20415;-69
2022/07/13 03:30:18;;;;;;;0.20;0.20;;;21.00;99.90;;;;;;5071779;28;20074;-68
2022/07/13 03:32:44;;;;;;;0.93;0.47;;;21.00;99.90;;;;;;5089630;28;20047;-69
2022/07/13 03:35:10;;;;;;;0.00;0.00;;;21.00;99.90;;;;;;5089151;28;20427;-68
2022/07/13 03:37:36;;;;;;;0.03;0.03;;;21.00;99.90;;;;;;5094262;28;20054;-68
2022/07/13 03:40:03;;;;;;;0.68;0.68;;;21.00;99.90;;;;;;5076878;28;20040;-69
2022/07/13 03:42:29;;;;;;;4.85;0.22;;;21.00;99.90;;;;;;5043233;28;20041;-69
2022/07/13 03:44:54;;;;;;;0.00;0.00;;;20.90;99.90;;;;;;5083897;28;20051;-68
2022/07/13 03:47:20;;;;;;;0.32;0.25;;;21.00;99.90;;;;;;5093132;28;20119;-68
2022/07/13 03:49:45;;;;;;;0.00;0.00;;;21.00;99.90;;;;;;5094121;28;20036;-68
2022/07/13 03:52:11;;;;;;;0.32;0.32;;;21.00;99.90;;;;;;5091843;28;20048;-68
2022/07/13 03:54:37;;;;;;;0.28;0.28;;;21.00;99.90;;;;;;5074760;28;20044;-68
2022/07/13 03:57:02;;;;;;;0.10;0.10;;;21.00;99.90;;;;;;5093627;28;20463;-68
2022/07/13 03:59:28;;;;;;;0.25;0.25;;;21.00;99.90;;;;;;5093659;28;20047;-68
2022/07/13 04:01:53;;;;;;;0.35;0.35;;;21.00;99.90;;;;;;5059815;28;20044;-68
2022/07/13 04:04:19;;;;;;;0.10;0.10;;;21.00;99.90;;;;;;5093490;28;20110;-68
2022/07/13 04:06:44;;;;;;;0.00;0.00;;;20.90;99.90;;;;;;5091904;28;20040;-68
2022/07/13 04:09:10;;;;;;;2.25;0.43;;;20.90;99.90;;;;;;5083737;28;20044;-68
2022/07/13 04:11:36;;;;;;;0.20;0.20;;;20.90;99.90;;;;;;5072188;28;20449;-68
2022/07/13 04:14:01;;;;;;;0.75;0.75;;;20.90;99.90;;;;;;5070720;28;20435;-68
2022/07/13 04:16:27;;;;;;;0.00;0.00;;;20.90;99.90;;;;;;5060282;28;20037;-68
2022/07/13 04:18:52;;;;;;;0.15;0.15;;;20.80;99.90;;;;;;5081209;28;20044;-69
2022/07/13 04:21:18;;;;;;;0.10;0.10;;;20.80;99.90;;;;;;5093202;28;20058;-68
2022/07/13 04:23:43;;;;;;;0.15;0.15;;;20.80;99.90;;;;;;5074660;28;20135;-68
2022/07/13 04:26:09;;;;;;;0.57;0.35;;;20.80;99.90;;;;;;5093210;28;20410;-68
2022/07/13 04:28:34;;;;;;;0.93;0.65;;;20.80;99.90;;;;;;5075681;28;20044;-68
2022/07/13 04:31:00;;;;;;;2.15;1.05;;;20.70;99.90;;;;;;5092078;28;20044;-69
2022/07/13 04:33:26;;;;;;;0.38;0.38;;;20.80;99.90;;;;;;5087152;28;20119;-68
2022/07/13 04:35:51;;;;;;;1.05;1.00;;;20.70;99.90;;;;;;5051875;28;20059;-68
2022/07/13 04:38:17;;;;;;;0.75;0.65;;;20.70;99.90;;;;;;5037531;28;20049;-68
2022/07/13 04:40:42;;;;;;;0.20;0.20;;;20.70;99.90;;;;;;5072604;28;20068;-68
2022/07/13 04:43:08;;;;;;;0.10;0.10;;;20.70;99.90;;;;;;5071781;28;20080;-68
2022/07/13 04:45:34;;;;;;;0.13;0.13;;;20.70;99.90;;;;;;5087596;28;20048;-68
2022/07/13 04:48:00;;;;;;;0.30;0.30;;;20.70;99.90;;;;;;5092186;28;20048;-68
2022/07/13 04:50:25;;;;;;;0.15;0.15;;;20.70;99.90;;;;;;5092251;28;20119;-68
2022/07/13 04:52:51;;;;;;;0.55;0.55;;;20.70;99.90;;;;;;5082116;28;20040;-68
2022/07/13 04:55:17;;;;;;;0.57;0.55;;;20.70;99.90;;;;;;5092667;28;20040;-68
2022/07/13 04:57:43;;;;;;;0.00;0.00;;;20.70;99.90;;;;;;5091899;28;20395;-68
2022/07/13 05:00:09;;;;;;;0.10;0.10;;;20.80;99.90;;;;;;5090119;28;20044;-68
2022/07/13 05:02:36;;;;;;;0.00;0.00;;;20.80;99.90;;;;;;5092522;28;20094;-68
2022/07/13 05:05:03;;;;;;;1.48;1.20;;;20.80;99.90;;;;;;5091801;28;20047;-68
2022/07/13 05:07:29;;;;;;;0.10;0.10;;;20.70;99.90;;;;;;5092745;28;20460;-68
2022/07/13 05:09:55;;;;;;;0.00;0.00;;;20.80;99.90;;;;;;5075352;28;20044;-68
2022/07/13 05:12:21;;;;;;;0.38;0.38;;;20.80;99.90;;;;;;5091301;28;20040;-69
2022/07/13 05:14:46;;;;;;;0.20;0.20;;;20.80;99.90;;;;;;5090690;28;20051;-68
2022/07/13 05:17:12;;;;;;;0.10;0.10;;;20.80;99.90;;;;;;5074867;28;20094;-68
2022/07/13 05:19:38;;;;;;;0.08;0.08;;;20.80;99.90;;;;;;5052086;28;20241;-68
2022/07/13 05:22:04;;;;;;;0.10;0.10;;;20.80;99.90;;;;;;5067873;28;20072;-69
2022/07/13 05:24:29;;;;;;;0.00;0.00;;;20.80;99.90;;;;;;5072023;28;20096;-69
2022/07/13 05:26:55;;;;;;;0.28;0.28;;;20.80;99.90;;;;;;5084835;28;20044;-68
2022/07/13 05:29:20;;;;;;;0.00;0.00;;;20.80;99.90;;;;;;5091911;28;20123;-69
2022/07/13 05:31:46;;;;;;;1.08;0.13;;;20.90;99.90;;;;;;5092283;28;20040;-68
2022/07/13 05:34:11;;;;;;;0.40;0.40;;;20.90;99.90;;;;;;5070056;28;20090;-68
2022/07/13 05:36:37;;;;;;;0.43;0.32;;;20.90;99.90;;;;;;5091751;28;20032;-69
2022/07/13 05:39:04;;;;;;;0.03;0.03;;;20.90;99.90;;;;;;5068959;28;20377;-68
2022/07/13 05:41:29;;;;;;;0.00;0.00;;;20.90;99.90;;;;;;5085599;28;20052;-68
2022/07/13 05:43:55;;;;;;;0.00;0.00;;;20.90;99.90;;;;;;5053983;28;20094;-68
2022/07/13 05:46:20;;;;;;;0.08;0.08;;;20.90;99.90;;;;;;5070481;28;20480;-68
2022/07/13 05:48:46;;;;;;;0.28;0.22;;;20.90;99.90;;;;;;5087020;28;20182;-68
2022/07/13 05:51:11;;;;;;;0.10;0.10;;;20.90;99.90;;;;;;5091287;28;20044;-68
2022/07/13 05:53:37;;;;;;;0.50;0.38;;;20.90;99.90;;;;;;5091184;28;20048;-68
2022/07/13 05:56:02;;;;;;;0.00;0.00;;;20.90;99.90;;;;;;5089326;28;20389;-68
2022/07/13 05:58:28;;;;;;;0.08;0.08;;;20.90;99.90;;;;;;5090757;28;20059;-68
2022/07/13 06:00:54;;;;;;;7.72;2.05;;;20.90;99.90;;;;;;5085319;28;20051;-68
2022/07/13 06:03:19;;;;;;;0.20;0.08;;;20.90;99.90;;;;;;5070671;28;20135;-69
2022/07/13 06:05:45;;;;;;;0.00;0.00;;;20.90;99.90;;;;;;5082013;28;20127;-68
2022/07/13 06:08:10;;;;;;;0.00;0.00;;;20.90;99.90;;;;;;5068261;28;20059;-69
2022/07/13 06:10:36;;;;;;;0.00;0.00;;;20.90;99.90;;;;;;5051104;28;20049;-68
2022/07/13 06:13:01;;;;;;;0.32;0.22;;;20.90;99.90;;;;;;5070631;28;20052;-69
2022/07/13 06:15:27;;;;;;;0.00;0.00;;;21.00;99.90;;;;;;5070429;28;20041;-68
2022/07/13 06:17:52;;;;;;;0.65;0.22;;;21.00;99.90;;;;;;5082237;28;20048;-68
2022/07/13 06:20:18;;;;;;;0.98;0.85;;;21.00;99.90;;;;;;5088513;28;20040;-69
2022/07/13 06:23:09;;;;;;;0.00;0.00;;;21.10;99.90;;;;;;5069981;28;20055;-69
2022/07/13 06:25:29;;;;;;;0.15;0.15;;;21.10;99.90;;;;;;5082776;28;20051;-68
2022/07/13 06:27:55;;;;;;;0.95;0.45;;;21.10;99.90;;;;;;5072916;28;20047;-69
2022/07/13 06:30:20;;;;;;;0.40;0.30;;;21.20;99.90;;;;;;5071884;28;20044;-69
2022/07/13 06:32:46;;;;;;;0.00;0.00;;;21.20;99.90;;;;;;5090896;28;20044;-69
2022/07/13 06:35:12;;;;;;;0.10;0.10;;;21.20;99.90;;;;;;5090656;28;20047;-69
2022/07/13 06:37:37;;;;;;;0.08;0.08;;;21.20;99.90;;;;;;5087599;28;20059;-69
2022/07/13 06:40:03;;;;;;;0.32;0.30;;;21.30;99.90;;;;;;5082474;28;20056;-69
2022/07/13 06:42:29;;;;;;;0.10;0.10;;;21.30;99.90;;;;;;5076579;28;20048;-69
2022/07/13 06:44:55;;;;;;;0.32;0.32;;;21.40;99.90;;;;;;5089722;28;20102;-69
2022/07/13 06:47:21;;;;;;;0.00;0.00;;;21.40;99.90;;;;;;5090347;28;20431;-69
2022/07/13 06:49:46;;;;;;;0.00;0.00;;;21.40;99.90;;;;;;5087122;28;20483;-68
2022/07/13 06:52:12;;;;;;;0.00;0.00;;;21.50;99.90;;;;;;5090503;28;20549;-69
2022/07/13 06:54:37;;;;;;;0.00;0.00;;;21.40;99.90;;;;;;5082619;28;20435;-69
2022/07/13 06:57:03;;;;;;;0.20;0.20;;;21.50;99.90;;;;;;5086351;28;20071;-69
2022/07/13 06:59:28;;;;;;;0.65;0.65;;;21.50;99.90;;;;;;5072200;28;20048;-69
2022/07/13 07:01:54;;;;;;;0.17;0.10;;;21.60;99.90;;;;;;5087619;28;20036;-69
2022/07/13 07:04:19;;;;;;;0.28;0.28;;;21.60;99.90;;;;;;5089649;28;20047;-69
2022/07/13 07:06:45;;;;;;;0.65;0.45;;;21.70;99.90;;;;;;5074310;28;20052;-69
2022/07/13 07:09:11;;;;;;;0.00;0.00;;;21.70;99.90;;;;;;5059324;28;20117;-69
2022/07/13 07:11:36;;;;;;;0.00;0.00;;;21.70;99.90;;;;;;5060123;28;20110;-69
2022/07/13 07:14:02;;;;;;;11.15;0.75;;;21.80;99.90;;;;;;5078505;28;20054;-69
2022/07/13 07:16:28;;;;;;;0.05;0.05;;;21.80;99.90;;;;;;5057663;28;20045;-69
2022/07/13 07:18:53;;;;;;;0.00;0.00;;;21.90;99.90;;;;;;5049865;28;20067;-69
2022/07/13 07:21:19;;;;;;;0.10;0.10;;;21.90;99.90;;;;;;5049731;28;20045;-69
2022/07/13 07:23:44;;;;;;;0.10;0.10;;;22.00;99.90;;;;;;5068709;28;20047;-69
2022/07/13 07:26:10;;;;;;;0.00;0.00;;;22.00;99.90;;;;;;5089257;28;20504;-69
2022/07/13 07:28:35;;;;;;;1.65;0.32;;;22.00;99.90;;;;;;5089881;28;20051;-69
2022/07/13 07:31:01;;;;;;;0.00;0.00;;;22.10;99.90;;;;;;5090094;28;20040;-69
2022/07/13 07:33:27;;;;;;;0.10;0.10;;;22.00;99.90;;;;;;5086959;28;20044;-69
2022/07/13 07:35:52;;;;;;;0.00;0.00;;;22.10;99.90;;;;;;5072149;28;20047;-69
2022/07/13 07:38:18;;;;;;;0.00;0.00;;;22.10;99.90;;;;;;5067481;28;20131;-69
2022/07/13 07:40:43;;;;;;;0.20;0.10;;;22.20;99.90;;;;;;5071234;28;20128;-70
2022/07/13 07:43:09;;;;;;;0.20;0.10;;;22.20;99.90;;;;;;5071727;28;20064;-70
2022/07/13 07:45:35;;;;;;;0.00;0.00;;;22.20;99.90;;;;;;5067597;28;20060;-69
2022/07/13 07:48:00;;;;;;;0.30;0.28;;;22.20;99.90;;;;;;5089219;28;20493;-69
2022/07/13 07:50:26;;;;;;;0.10;0.10;;;22.30;99.90;;;;;;5071794;28;20059;-69
2022/07/13 07:52:52;;;;;;;0.00;0.00;;;22.40;99.90;;;;;;5070735;28;20053;-69
2022/07/13 07:55:17;;;;;;;0.00;0.00;;;22.40;99.90;;;;;;5089058;28;20131;-69
2022/07/13 07:57:45;;;;;;;0.20;0.20;;;22.40;99.90;;;;;;5071818;28;20040;-69
2022/07/13 08:00:11;;;;;;;0.00;0.00;;;22.50;99.90;;;;;;5088965;28;20078;-70
2022/07/13 08:02:36;;;;;;;0.10;0.10;;;22.50;99.90;;;;;;5086183;28;20525;-70
2022/07/13 08:05:02;;;;;;;0.00;0.00;;;22.50;99.90;;;;;;5069128;28;20169;-70
2022/07/13 08:07:30;;;;;;;0.10;0.10;;;22.50;99.90;;;;;;5088458;28;20048;-69
2022/07/13 08:09:57;;;;;;;0.00;0.00;;;22.50;99.90;;;;;;5068871;28;20514;-70
2022/07/13 08:12:22;;;;;;;0.17;0.17;;;22.60;99.90;;;;;;5051502;28;20135;-70
2022/07/13 08:14:48;;;;;;;0.10;0.10;;;22.60;99.90;;;;;;5056141;28;20052;-70
2022/07/13 08:17:13;;;;;;;0.00;0.00;;;22.70;99.90;;;;;;5071758;28;20442;-70
2022/07/13 08:19:39;;;;;;;0.10;0.10;;;22.70;99.90;;;;;;5069248;28;20106;-70
2022/07/13 08:22:04;;;;;;;0.38;0.15;;;22.80;99.90;;;;;;5062101;28;20060;-70
2022/07/13 08:24:30;;;;;;;0.00;0.00;;;22.90;99.90;;;;;;5091843;28;20044;-70
2022/07/13 08:26:57;;;;;;;2.05;0.20;;;22.90;99.90;;;;;;5090555;28;20047;-70
2022/07/13 08:29:22;;;;;;;0.00;0.00;;;22.90;99.90;;;;;;5092336;28;20434;-70
2022/07/13 08:31:48;;;;;;;1.45;0.20;;;23.00;99.90;;;;;;5084711;28;20049;-70
2022/07/13 08:39:42;;;;;;;0.00;0.00;;;23.20;99.90;;;;;;5062345;28;20086;-70
2022/07/13 08:42:09;;;;;;;0.00;0.00;;;23.20;99.90;;;;;;5082715;28;20053;-70
2022/07/13 08:44:34;;;;;;;0.28;0.08;;;23.20;99.90;;;;;;5064038;28;20408;-70
2022/07/13 08:47:01;;;;;;;0.00;0.00;;;23.20;99.90;;;;;;5090206;28;20119;-70
2022/07/13 08:49:28;;;;;;;0.22;0.22;;;23.30;99.90;;;;;;5091823;28;20377;-70
2022/07/13 08:51:54;;;;;;;0.22;0.22;;;23.40;99.90;;;;;;5074954;28;20497;-70
2022/07/13 08:54:20;;;;;;;0.00;0.00;;;23.40;99.90;;;;;;5085809;28;20098;-70
2022/07/13 08:56:45;;;;;;;0.00;0.00;;;23.50;99.90;;;;;;5079920;28;20072;-70
2022/07/13 08:59:12;;;;;;;0.00;0.00;;;23.50;99.90;;;;;;5092836;28;20077;-70
2022/07/13 09:01:38;;;;;;;0.00;0.00;;;23.60;99.90;;;;;;5074331;28;20514;-70
2022/07/13 09:04:09;;;;;;;0.00;0.00;;;23.60;99.90;;;;;;5089418;28;20500;-70
2022/07/13 09:06:43;;;;;;;0.25;0.25;;;23.70;99.90;;;;;;5092463;28;20471;-70
2022/07/13 09:09:31;;;;;;;0.30;0.30;;;23.60;99.90;;;;;;5081389;28;20036;-70
2022/07/13 09:12:16;;;;;;;0.00;0.00;;;23.60;99.90;;;;;;5074072;28;20134;-70
2022/07/13 09:14:48;;;;;;;0.15;0.10;;;23.70;99.90;;;;;;5092443;28;20040;-70
2022/07/13 09:17:33;;;;;;;0.00;0.00;;;23.70;99.90;;;;;;5089049;28;20862;-70
2022/07/13 09:20:20;;;;;;;0.10;0.10;;;23.70;99.90;;;;;;5074640;28;20079;-69
2022/07/13 09:22:48;;;;;;;0.38;0.38;;;23.70;99.90;;;;;;5092300;28;20063;-69
2022/07/13 09:25:32;;;;;;;0.00;0.00;;;23.70;99.90;;;;;;5072421;28;20048;-70
2022/07/13 09:28:05;;;;;;;0.22;0.10;;;23.80;99.90;;;;;;5073960;28;20056;-70
2022/07/13 09:30:32;;;;;;;0.43;0.10;;;23.90;99.90;;;;;;5092382;28;20047;-70
2022/07/13 09:32:59;;;;;;;0.00;0.00;;;23.80;99.90;;;;;;5087859;28;20129;-70
2022/07/13 09:35:48;;;;;;;0.00;0.00;;;23.90;99.90;;;;;;5073575;28;20048;-69
2022/07/13 09:38:27;;;;;;;1.08;0.43;;;23.90;99.90;;;;;;5083894;28;20076;-69
2022/07/13 09:40:53;;;;;;;0.00;0.00;;;23.80;99.90;;;;;;5092159;28;20123;-69
2022/07/13 09:46:08;;;;;;;0.00;0.00;;;24.00;99.90;;;;;;5075723;28;20056;-69
2022/07/13 09:48:36;;;;;;;0.00;0.00;;;24.20;99.90;;;;;;5091645;28;20096;-69
2022/07/13 09:51:02;;;;;;;0.05;0.05;;;24.50;99.90;;;;;;5081378;28;20037;-69
2022/07/13 09:53:32;;;;;;;0.20;0.17;;;25.00;99.90;;;;;;5070212;28;20056;-69
2022/07/13 09:56:02;;;;;;;1.95;0.32;;;25.20;99.90;;;;;;5071837;28;20380;-70
2022/07/13 09:58:37;;;;;;;0.10;0.10;;;25.50;99.90;;;;;;5071388;28;20053;-69
2022/07/13 10:01:03;;;;;;;0.00;0.00;;;25.80;99.90;;;;;;5077472;28;20079;-70
2022/07/13 10:03:30;;;;;;;0.10;0.10;;;26.00;99.90;;;;;;5091346;28;20063;-69
2022/07/13 10:05:57;;;;;;;0.05;0.05;;;26.00;99.90;;;;;;5089117;28;20453;-70
2022/07/13 10:08:23;;;;;;;0.00;0.00;;;26.10;99.90;;;;;;5081250;28;20093;-69
2022/07/13 10:10:49;;;;;;;0.00;0.00;;;26.30;99.90;;;;;;5051539;28;20060;-70
2022/07/13 10:13:15;;;;;;;0.10;0.10;;;26.40;99.90;;;;;;5033411;28;20057;-70
2022/07/13 10:15:41;;;;;;;0.00;0.00;;;26.50;99.90;;;;;;5040593;28;20047;-70
2022/07/13 10:18:09;;;;;;;0.10;0.03;;;26.60;99.90;;;;;;5091043;28;20075;-70
2022/07/13 10:20:40;;;;;;;0.00;0.00;;;26.70;99.90;;;;;;5051061;28;20052;-69
2022/07/13 10:23:05;;;;;;;0.17;0.17;;;26.70;99.90;;;;;;5049057;28;20438;-69
2022/07/13 10:25:49;;;;;;;0.00;0.00;;;26.70;99.90;;;;;;5072926;28;20048;-70
2022/07/13 10:28:18;;;;;;;0.10;0.10;;;26.60;99.90;;;;;;5072088;28;20471;-70
2022/07/13 10:30:44;;;;;;;0.00;0.00;;;26.70;99.90;;;;;;5091091;28;20091;-70
2022/07/13 10:33:21;;;;;;;0.00;0.00;;;26.70;99.90;;;;;;5088321;28;20535;-70
2022/07/13 10:35:54;;;;;;;0.00;0.00;;;26.70;99.90;;;;;;5067480;28;20044;-69
2022/07/13 10:38:26;;;;;;;0.10;0.10;;;26.80;99.90;;;;;;5075737;28;20506;-70
2022/07/13 10:41:21;;;;;;;0.00;0.00;;;26.80;99.90;;;;;;5088240;28;20059;-69
2022/07/13 10:43:54;;;;;;;2.38;0.32;;;26.70;99.90;;;;;;5068190;28;20506;-69
2022/07/13 10:46:48;;;;;;;0.10;0.10;;;26.70;99.90;;;;;;5071047;28;20060;-70
2022/07/13 10:49:32;;;;;;;0.35;0.35;;;26.60;99.90;;;;;;5067559;28;20062;-69
2022/07/13 10:52:26;;;;;;;0.00;0.00;;;26.60;99.90;;;;;;5072339;28;20048;-69
2022/07/13 10:55:05;;;;;;;0.00;0.00;;;26.60;99.90;;;;;;5070078;28;20051;-69
2022/07/13 10:57:33;;;;;;;0.00;0.00;;;26.60;99.90;;;;;;5087290;28;20074;-69
2022/07/13 11:00:28;;;;;;;0.05;0.05;;;26.60;99.90;;;;;;5089846;28;20076;-70
2022/07/13 11:03:01;;;;;;;0.00;0.00;;;26.60;99.90;;;;;;5068540;28;20043;-70
2022/07/13 11:05:33;;;;;;;0.38;0.38;;;26.60;99.90;;;;;;5090215;28;20052;-70
2022/07/13 11:08:11;;;;;;;0.30;0.10;;;26.60;99.90;;;;;;5065529;28;20174;-70
2022/07/13 11:10:37;;;;;;;0.00;0.00;;;26.30;99.90;;;;;;5087895;28;20028;-70
2022/07/13 11:13:09;;;;;;;0.00;0.00;;;26.30;99.90;;;;;;5071855;28;20544;-70
2022/07/13 11:15:45;;;;;;;0.00;0.00;;;26.40;99.90;;;;;;5085322;28;20052;-70
2022/07/13 11:18:24;;;;;;;0.00;0.00;;;26.20;99.90;;;;;;5089048;28;20124;-70
2022/07/13 11:20:56;;;;;;;0.00;0.00;;;26.20;99.90;;;;;;5087773;28;20043;-69
2022/07/13 11:26:18;;;;;;;0.32;0.15;;;26.20;99.90;;;;;;5089168;28;20442;-70
2022/07/13 11:29:02;;;;;;;0.00;0.00;;;26.60;99.90;;;;;;5087797;28;20055;-69
2022/07/13 11:31:28;;;;;;;0.00;0.00;;;26.50;99.90;;;;;;5070959;28;20066;-69
2022/07/13 11:33:53;;;;;;;0.00;0.00;;;26.30;99.90;;;;;;5090372;28;20047;-69
2022/07/13 11:36:22;;;;;;;0.00;0.00;;;26.10;99.90;;;;;;5080623;28;20091;-69
2022/07/13 11:38:48;;;;;;;0.03;0.03;;;26.10;99.90;;;;;;5057568;28;20143;-69
2022/07/13 11:41:19;;;;;;;0.13;0.13;;;26.30;99.90;;;;;;5087521;28;20135;-69
2022/07/13 11:43:48;;;;;;;0.25;0.25;;;26.20;99.90;;;;;;5079067;28;20483;-69
2022/07/13 11:46:14;;;;;;;0.00;0.00;;;26.30;99.90;;;;;;5088989;28;20123;-69
2022/07/13 11:48:39;;;;;;;0.10;0.10;;;26.60;99.90;;;;;;5084160;28;20506;-69
2022/07/13 11:51:11;;;;;;;0.25;0.13;;;26.70;99.90;;;;;;5068887;28;20048;-69
2022/07/13 11:53:36;;;;;;;0.00;0.00;;;26.70;99.90;;;;;;5068968;28;20086;-69
2022/07/13 11:56:08;;;;;;;0.00;0.00;;;26.70;99.90;;;;;;5081683;28;20048;-69
2022/07/13 11:58:35;;;;;;;0.00;0.00;;;27.00;99.90;;;;;;5093662;28;20039;-69
2022/07/13 12:01:10;;;;;;;0.03;0.03;;;27.10;99.90;;;;;;5090778;28;20081;-69
2022/07/13 12:03:36;;;;;;;0.08;0.08;;;26.90;99.90;;;;;;5092284;28;20146;-69
2022/07/13 12:06:13;;;;;;;0.22;0.22;;;26.70;99.90;;;;;;5093399;28;20102;-69
2022/07/13 12:08:40;;;;;;;0.00;0.00;;;26.60;99.90;;;;;;5084287;28;20122;-69
2022/07/13 12:11:08;;;;;;;0.03;0.03;;;26.30;99.90;;;;;;5087615;28;20040;-68
2022/07/13 12:13:35;;;;;;;0.10;0.10;;;26.20;99.90;;;;;;5092802;28;20040;-69
2022/07/13 12:16:05;;;;;;;0.28;0.28;;;26.20;99.90;;;;;;5082665;28;20090;-69
2022/07/13 12:18:51;;;;;;;0.80;0.68;;;26.30;99.90;;;;;;5055258;28;20117;-69
2022/07/13 12:21:17;;;;;;;5.68;1.92;;;26.50;99.90;;;;;;5071122;28;20055;-69
2022/07/13 12:23:48;;;;;;;0.65;0.35;;;26.70;99.90;;;;;;5073136;28;20036;-69
2022/07/13 12:26:14;;;;;;;0.10;0.10;;;26.80;99.90;;;;;;5083205;28;20040;-69
2022/07/13 12:28:42;;;;;;;0.00;0.00;;;26.90;99.90;;;;;;5090213;28;20055;-69
2022/07/13 12:31:08;;;;;;;0.52;0.20;;;26.80;99.90;;;;;;5092562;28;20487;-69
2022/07/13 12:33:47;;;;;;;0.10;0.10;;;26.90;99.90;;;;;;5075005;28;20047;-69
2022/07/13 12:36:14;;;;;;;0.52;0.52;;;27.20;99.90;;;;;;5089888;28;20048;-69
2022/07/13 12:38:53;;;;;;;1.70;0.63;;;27.10;99.90;;;;;;5076978;28;20078;-69
2022/07/13 12:41:27;;;;;;;0.00;0.00;;;27.30;99.90;;;;;;5088861;28;20508;-69
2022/07/13 12:44:00;;;;;;;0.10;0.10;;;27.50;99.90;;;;;;5087745;28;20128;-69
2022/07/13 12:46:42;;;;;;;0.80;0.52;;;27.50;99.90;;;;;;5093068;28;20097;-69
2022/07/13 12:49:08;;;;;;;1.85;0.65;;;27.40;99.90;;;;;;5092059;28;20399;-69
2022/07/13 12:51:49;;;;;;;0.80;0.38;;;27.40;99.90;;;;;;5074862;28;20343;-70
2022/07/13 12:54:15;;;;;;;0.00;0.00;;;27.40;99.90;;;;;;5090556;28;20499;-69
2022/07/13 12:56:51;;;;;;;0.00;0.00;;;27.20;99.90;;;;;;5070473;28;20063;-69
2022/07/13 12:59:20;;;;;;;0.13;0.13;;;27.40;99.90;;;;;;5072366;28;20076;-69
2022/07/13 13:01:48;;;;;;;0.00;0.00;;;27.60;99.90;;;;;;5054783;28;20059;-70